Time;durP1;ratioP1;P1;durP2;ratioP2;P2;SDS_P1;SDS_P2;PMS_P1;PMS_P2;Temp;Humidity;BMP_temperature;BMP_pressure;BME280_temperature;BME280_humidity;BME280_pressure;Samples;Min_cycle;Max_cycle;Signal;HPM_P1;HPM_P2
2021/03/24 00:04:40;;;;;;;59.30;32.73;;;;;6.00;101897.00;;;;10360948;28;20535;-75
2021/03/24 00:09:42;;;;;;;63.50;34.27;;;;;5.90;101900.00;;;;10398602;28;21080;-75
2021/03/24 00:14:43;;;;;;;60.13;34.27;;;;;5.90;101898.00;;;;10344295;28;20212;-75
2021/03/24 00:19:45;;;;;;;62.23;34.37;;;;;5.80;101905.00;;;;10328373;28;20195;-75
2021/03/24 00:24:46;;;;;;;65.77;33.63;;;;;5.80;101891.00;;;;10366187;28;20260;-75
2021/03/24 00:29:47;;;;;;;61.20;35.17;;;;;5.70;101891.00;;;;10383949;28;20952;-75
2021/03/24 00:34:49;;;;;;;60.43;33.63;;;;;5.70;101886.00;;;;10400706;28;20204;-74
2021/03/24 00:39:50;;;;;;;71.47;35.50;;;;;5.60;101894.00;;;;10400698;28;20657;-74
2021/03/24 00:44:52;;;;;;;65.37;36.10;;;;;5.50;101882.00;;;;10417413;28;20207;-75
2021/03/24 00:49:53;;;;;;;63.47;36.83;;;;;5.50;101876.00;;;;10383811;28;20187;-74
2021/03/24 00:55:07;;;;;;;65.87;35.90;;;;;5.40;101882.00;;;;10369885;28;20191;-74
2021/03/24 01:00:13;;;;;;;66.23;36.30;;;;;5.40;101879.00;;;;10400642;28;20237;-74
2021/03/24 01:05:18;;;;;;;68.60;37.53;;;;;5.30;101870.00;;;;10400017;28;20689;-75
2021/03/24 01:10:28;;;;;;;67.93;36.07;;;;;5.10;101860.00;;;;10417670;28;20183;-75
2021/03/24 01:15:31;;;;;;;63.33;35.83;;;;;5.00;101862.00;;;;10399167;28;20215;-74
2021/03/24 01:20:35;;;;;;;73.93;39.07;;;;;4.90;101857.00;;;;10366599;28;20227;-74
2021/03/24 01:25:37;;;;;;;77.57;38.80;;;;;4.90;101861.00;;;;10382582;28;20215;-74
2021/03/24 01:30:38;;;;;;;66.23;36.00;;;;;4.70;101853.00;;;;10366211;28;20241;-74
2021/03/24 01:35:40;;;;;;;67.87;37.10;;;;;4.50;101862.00;;;;10398288;28;20191;-74
2021/03/24 01:40:45;;;;;;;81.97;37.43;;;;;4.40;101861.00;;;;10398003;28;20194;-74
2021/03/24 01:46:20;;;;;;;73.83;37.23;;;;;4.30;101856.00;;;;10365417;28;20268;-74
2021/03/24 01:51:38;;;;;;;68.23;35.73;;;;;4.50;101854.00;;;;10381672;28;20719;-74
2021/03/24 01:57:04;;;;;;;70.77;35.73;;;;;4.70;101861.00;;;;10383477;28;20222;-75
2021/03/24 02:02:12;;;;;;;70.10;36.83;;;;;4.80;101848.00;;;;10414517;28;20210;-74
2021/03/24 02:07:22;;;;;;;66.40;35.07;;;;;4.90;101855.00;;;;10381419;28;20182;-74
2021/03/24 02:12:52;;;;;;;68.20;35.30;;;;;5.10;101844.00;;;;10415413;28;20187;-75
2021/03/24 02:17:54;;;;;;;63.10;33.63;;;;;5.10;101840.00;;;;10380426;28;20293;-75
2021/03/24 02:23:02;;;;;;;61.47;34.87;;;;;5.20;101838.00;;;;10397039;28;20225;-75
2021/03/24 02:28:08;;;;;;;63.93;34.23;;;;;5.20;101835.00;;;;10380636;28;20202;-75
2021/03/24 02:33:21;;;;;;;61.67;33.63;;;;;5.20;101828.00;;;;10397238;28;20191;-75
2021/03/24 02:38:24;;;;;;;70.80;35.57;;;;;5.10;101839.00;;;;10413871;28;20195;-75
2021/03/24 02:43:26;;;;;;;62.83;35.37;;;;;5.10;101832.00;;;;10396258;28;20214;-75
2021/03/24 02:48:31;;;;;;;66.87;35.00;;;;;5.00;101823.00;;;;10380097;28;20202;-75
2021/03/24 02:53:35;;;;;;;70.40;36.30;;;;;4.90;101825.00;;;;10400542;28;20209;-75
2021/03/24 02:58:37;;;;;;;73.53;36.53;;;;;5.00;101822.00;;;;10371469;28;20237;-75
2021/03/24 03:03:43;;;;;;;66.60;36.07;;;;;5.00;101819.00;;;;10388977;28;20268;-75
2021/03/24 03:09:04;;;;;;;70.37;34.90;;;;;5.10;101817.00;;;;10372546;28;20654;-75
2021/03/24 03:14:38;;;;;;;76.10;36.60;;;;;5.10;101823.00;;;;10388309;28;20236;-75
2021/03/24 03:20:15;;;;;;;68.43;34.90;;;;;5.20;101822.00;;;;10379746;28;20195;-75
2021/03/24 03:25:20;;;;;;;70.07;36.37;;;;;5.10;101817.00;;;;10349685;28;20883;-75
2021/03/24 03:30:30;;;;;;;65.67;35.10;;;;;5.00;101810.00;;;;10378373;28;20659;-75
2021/03/24 03:35:34;;;;;;;72.87;37.87;;;;;4.80;101815.00;;;;10362104;28;20191;-75
2021/03/24 03:40:37;;;;;;;75.83;35.97;;;;;4.70;101815.00;;;;10377910;28;20200;-75
2021/03/24 03:45:41;;;;;;;71.07;35.47;;;;;4.80;101799.00;;;;10378245;28;20679;-75
2021/03/24 03:50:46;;;;;;;71.57;35.77;;;;;4.90;101804.00;;;;10364459;28;20693;-75
2021/03/24 03:56:01;;;;;;;69.80;36.30;;;;;5.00;101800.00;;;;10361691;28;20218;-75
2021/03/24 04:01:19;;;;;;;64.43;36.10;;;;;5.00;101801.00;;;;10378000;28;20713;-75
2021/03/24 04:06:33;;;;;;;68.73;36.10;;;;;5.00;101807.00;;;;10377606;28;20207;-75
2021/03/24 04:11:44;;;;;;;69.27;37.10;;;;;4.90;101799.00;;;;10361671;28;20250;-75
2021/03/24 04:16:47;;;;;;;72.07;38.93;;;;;4.90;101795.00;;;;10379009;28;20302;-75
2021/03/24 04:21:53;;;;;;;67.83;36.30;;;;;4.90;101806.00;;;;10328288;28;20211;-75
2021/03/24 04:27:00;;;;;;;70.13;36.97;;;;;4.90;101793.00;;;;10377534;28;20204;-75
2021/03/24 04:32:03;;;;;;;69.80;36.50;;;;;4.80;101798.00;;;;10376294;28;20195;-75
2021/03/24 04:37:33;;;;;;;68.87;36.37;;;;;4.90;101794.00;;;;10401601;28;20190;-75
2021/03/24 04:42:37;;;;;;;65.73;35.90;;;;;5.00;101801.00;;;;10418042;28;20249;-75
2021/03/24 04:47:39;;;;;;;69.57;36.67;;;;;4.90;101800.00;;;;10384681;28;20191;-75
2021/03/24 04:52:40;;;;;;;78.13;39.47;;;;;4.90;101805.00;;;;10411152;28;20194;-75
2021/03/24 04:57:43;;;;;;;66.37;37.57;;;;;4.70;101803.00;;;;10384615;28;20187;-75
2021/03/24 05:02:49;;;;;;;74.10;36.27;;;;;4.50;101808.00;;;;10400427;28;20187;-75
2021/03/24 05:08:29;;;;;;;66.00;35.63;;;;;4.40;101806.00;;;;10384185;28;20191;-75
2021/03/24 05:13:40;;;;;;;68.17;36.00;;;;;4.20;101809.00;;;;10400098;28;20254;-75
2021/03/24 05:18:41;;;;;;;68.33;35.60;;;;;4.30;101814.00;;;;10398906;28;20197;-75
2021/03/24 05:23:47;;;;;;;66.90;35.87;;;;;4.30;101802.00;;;;10382858;28;20211;-75
2021/03/24 05:28:53;;;;;;;72.40;37.87;;;;;4.20;101814.00;;;;10374833;28;20207;-76
2021/03/24 05:34:01;;;;;;;71.13;37.53;;;;;4.10;101811.00;;;;10389497;28;20186;-75
2021/03/24 05:39:17;;;;;;;71.53;36.00;;;;;4.00;101812.00;;;;10398186;28;20241;-75
2021/03/24 05:44:44;;;;;;;67.33;35.77;;;;;3.90;101810.00;;;;10397187;28;20230;-75
2021/03/24 05:50:23;;;;;;;75.87;34.90;;;;;3.90;101807.00;;;;10379473;28;20257;-75
2021/03/24 06:01:45;;;;;;;78.73;36.70;;;;;4.20;101809.00;;;;9596402;30;20230;-75
2021/03/24 06:07:25;;;;;;;66.10;32.83;;;;;4.50;101810.00;;;;9621697;30;20228;-76
2021/03/24 06:12:51;;;;;;;71.13;35.43;;;;;4.90;101805.00;;;;9627166;30;20208;-76
2021/03/24 06:18:11;;;;;;;57.90;31.17;;;;;5.00;101803.00;;;;9601062;30;20205;-76
2021/03/24 06:23:41;;;;;;;56.03;31.77;;;;;5.50;101814.00;;;;9616340;30;20697;-76
2021/03/24 06:28:53;;;;;;;57.97;30.90;;;;;5.90;101820.00;;;;9617535;30;20232;-76
2021/03/24 06:34:42;;;;;;;59.73;32.30;;;;;6.20;101807.00;;;;9572781;30;20642;-76
2021/03/24 06:40:09;;;;;;;58.30;31.03;;;;;6.50;101810.00;;;;9545657;30;20235;-76
2021/03/24 06:45:27;;;;;;;61.27;32.83;;;;;6.80;101817.00;;;;9623891;30;20609;-76
2021/03/24 06:50:53;;;;;;;52.80;31.83;;;;;7.20;101820.00;;;;9629666;30;20232;-76
2021/03/24 06:56:17;;;;;;;57.73;30.63;;;;;7.70;101817.00;;;;9611619;30;20229;-76
2021/03/24 07:01:33;;;;;;;51.80;30.23;;;;;8.20;101820.00;;;;9590537;30;20201;-76
2021/03/24 07:06:56;;;;;;;51.77;29.40;;;;;8.70;101814.00;;;;9574233;30;20217;-76
2021/03/24 07:12:02;;;;;;;52.33;28.97;;;;;9.10;101798.00;;;;9597537;30;20209;-76
2021/03/24 07:17:23;;;;;;;53.93;30.37;;;;;9.50;101807.00;;;;9584078;30;20228;-77
2021/03/24 07:23:06;;;;;;;56.33;31.47;;;;;9.90;101807.00;;;;9598618;30;20673;-77
2021/03/24 07:28:32;;;;;;;52.03;29.30;;;;;10.20;101808.00;;;;9585430;30;20206;-77
2021/03/24 07:33:48;;;;;;;48.83;29.33;;;;;10.50;101792.00;;;;9620747;30;20232;-77
2021/03/24 07:39:18;;;;;;;57.33;31.80;;;;;10.80;101797.00;;;;9600425;30;20714;-77
2021/03/24 07:44:39;;;;;;;51.60;30.67;;;;;11.20;101794.00;;;;9598880;30;20295;-77
2021/03/24 07:49:55;;;;;;;51.13;30.90;;;;;11.70;101798.00;;;;9562424;30;20243;-77
2021/03/24 07:55:09;;;;;;;57.33;32.33;;;;;12.00;101788.00;;;;9588634;30;20281;-77
2021/03/24 08:00:51;;;;;;;50.07;29.57;;;;;12.40;101788.00;;;;9611769;30;20734;-77
2021/03/24 08:06:04;;;;;;;54.37;30.77;;;;;12.70;101780.00;;;;9602020;30;20217;-77
2021/03/24 08:11:24;;;;;;;54.47;29.97;;;;;13.10;101783.00;;;;9586665;30;20210;-77
2021/03/24 08:16:50;;;;;;;51.20;28.37;;;;;13.50;101781.00;;;;9588101;30;20685;-73
2021/03/24 08:22:10;;;;;;;45.00;27.83;;;;;13.90;101772.00;;;;9586538;30;20272;-74
2021/03/24 08:27:18;;;;;;;50.13;30.17;;;;;14.30;101772.00;;;;9596656;30;20217;-77
2021/03/24 08:32:35;;;;;;;50.57;27.93;;;;;14.70;101768.00;;;;9595154;30;20229;-74
2021/03/24 08:38:09;;;;;;;46.90;29.00;;;;;14.90;101767.00;;;;9592608;30;20212;-74
2021/03/24 08:43:34;;;;;;;48.07;27.97;;;;;15.20;101751.00;;;;9586807;30;20652;-74
2021/03/24 08:48:51;;;;;;;45.63;26.73;;;;;15.50;101748.00;;;;9553559;30;20766;-74
2021/03/24 08:54:14;;;;;;;50.60;27.60;;;;;15.70;101751.00;;;;9608289;30;20205;-74
2021/03/24 08:59:41;;;;;;;39.80;25.42;;;;;16.10;101745.00;;;;9604791;30;20237;-74
2021/03/24 09:05:31;;;;;;;42.17;26.33;;;;;16.30;101752.00;;;;9592941;30;20317;-74
2021/03/24 09:10:51;;;;;;;39.53;24.60;;;;;16.60;101749.00;;;;9512461;31;20263;-73
2021/03/24 09:16:12;;;;;;;40.33;24.98;;;;;16.80;101748.00;;;;9594765;30;20212;-75
2021/03/24 09:21:16;;;;;;;37.17;24.73;;;;;17.10;101750.00;;;;9564572;30;20680;-73
2021/03/24 09:26:39;;;;;;;40.60;24.38;;;;;17.40;101741.00;;;;9598468;30;20222;-72
2021/03/24 09:31:56;;;;;;;45.20;26.10;;;;;17.70;101752.00;;;;9596152;30;20206;-73
2021/03/24 09:37:08;;;;;;;34.45;21.40;;;;;17.90;101741.00;;;;9583702;30;20269;-73
2021/03/24 09:42:20;;;;;;;32.28;21.02;;;;;18.10;101744.00;;;;9612914;30;20249;-74
2021/03/24 09:47:40;;;;;;;33.03;20.08;;;;;18.40;101741.00;;;;9584311;30;20556;-73
2021/03/24 09:53:10;;;;;;;34.95;20.00;;;;;18.70;101734.00;;;;9612746;30;20309;-74
2021/03/24 09:58:29;;;;;;;34.13;20.70;;;;;18.80;101740.00;;;;9591888;30;20323;-73
2021/03/24 10:04:01;;;;;;;34.55;19.95;;;;;19.20;101741.00;;;;9567507;30;20213;-74
2021/03/24 10:09:29;;;;;;;28.13;19.88;;;;;19.40;101749.00;;;;9580631;30;20210;-73
2021/03/24 10:14:47;;;;;;;30.10;19.25;;;;;19.20;101735.00;;;;9574623;30;20236;-73
2021/03/24 10:19:56;;;;;;;29.13;17.95;;;;;19.30;101737.00;;;;9606076;30;21757;-73
2021/03/24 10:25:09;;;;;;;27.52;17.95;;;;;19.40;101743.00;;;;9585475;30;20221;-73
2021/03/24 10:30:13;;;;;;;28.52;18.25;;;;;19.50;101746.00;;;;9594078;30;20206;-73
2021/03/24 10:35:46;;;;;;;28.75;20.17;;;;;19.40;101740.00;;;;9607974;30;20288;-74
2021/03/24 10:41:04;;;;;;;28.58;18.27;;;;;19.40;101737.00;;;;9578173;30;20217;-73
2021/03/24 10:46:32;;;;;;;31.30;18.20;;;;;19.40;101730.00;;;;9613958;30;20698;-73
2021/03/24 10:51:52;;;;;;;29.48;17.85;;;;;19.50;101728.00;;;;9555312;30;20220;-73
2021/03/24 10:57:15;;;;;;;33.50;20.02;;;;;19.60;101735.00;;;;9565460;30;20277;-74
2021/03/24 11:02:37;;;;;;;28.42;19.65;;;;;19.70;101729.00;;;;9576910;30;20218;-74
2021/03/24 11:07:45;;;;;;;22.80;15.52;;;;;20.10;101724.00;;;;9620465;30;20233;-77
2021/03/24 11:12:55;;;;;;;29.45;20.02;;;;;20.10;101718.00;;;;9598230;30;20770;-73
2021/03/24 11:18:02;;;;;;;29.30;18.20;;;;;20.30;101726.00;;;;9606449;30;20217;-74
2021/03/24 11:23:09;;;;;;;27.05;17.45;;;;;20.30;101712.00;;;;9590495;30;20210;-74
2021/03/24 11:28:34;;;;;;;29.92;19.52;;;;;20.10;101710.00;;;;9576280;30;20201;-74
2021/03/24 11:33:44;;;;;;;27.67;19.50;;;;;20.10;101707.00;;;;9583367;30;20261;-73
2021/03/24 11:38:56;;;;;;;30.45;18.27;;;;;20.20;101703.00;;;;9599881;30;20809;-74
2021/03/24 11:44:07;;;;;;;27.65;19.08;;;;;20.50;101705.00;;;;9602059;30;20226;-74
2021/03/24 11:49:41;;;;;;;31.42;20.95;;;;;20.60;101699.00;;;;9597618;30;20217;-74
2021/03/24 11:54:48;;;;;;;29.95;21.20;;;;;20.70;101701.00;;;;9614272;30;20245;-73
2021/03/24 11:59:57;;;;;;;25.90;18.48;;;;;20.70;101689.00;;;;9606009;30;20241;-73
2021/03/24 12:05:10;;;;;;;25.45;17.80;;;;;20.60;101693.00;;;;9589735;30;20304;-73
2021/03/24 12:10:11;;;;;;;27.90;17.73;;;;;20.70;101686.00;;;;9608466;30;20667;-73
2021/03/24 12:15:33;;;;;;;26.65;17.15;;;;;21.00;101678.00;;;;9600160;30;20202;-73
2021/03/24 12:20:56;;;;;;;25.02;16.60;;;;;20.90;101670.00;;;;9591809;30;20201;-73
2021/03/24 12:25:59;;;;;;;20.20;15.15;;;;;20.90;101678.00;;;;9602239;30;20249;-74
2021/03/24 12:31:06;;;;;;;20.30;12.85;;;;;20.90;101663.00;;;;9593068;30;20217;-74
2021/03/24 12:36:14;;;;;;;23.58;15.15;;;;;21.10;101659.00;;;;9550724;30;20737;-74
2021/03/24 12:41:36;;;;;;;25.35;16.90;;;;;21.50;101652.00;;;;9603144;30;20209;-74
2021/03/24 12:46:56;;;;;;;21.33;14.88;;;;;21.50;101646.00;;;;9614493;30;20221;-73
2021/03/24 12:52:10;;;;;;;21.75;14.20;;;;;21.50;101649.00;;;;9597367;30;20209;-74
2021/03/24 12:57:41;;;;;;;21.33;13.88;;;;;21.60;101631.00;;;;9589626;30;20268;-73
2021/03/24 13:03:13;;;;;;;26.92;15.27;;;;;21.50;101635.00;;;;9579744;30;20218;-74
2021/03/24 13:08:47;;;;;;;19.52;13.55;;;;;21.60;101626.00;;;;9579011;30;20217;-74
2021/03/24 13:14:04;;;;;;;21.48;13.75;;;;;21.80;101627.00;;;;9571303;30;20214;-73
2021/03/24 13:19:24;;;;;;;21.17;13.73;;;;;21.60;101606.00;;;;9622967;30;20300;-73
2021/03/24 13:25:02;;;;;;;19.85;12.85;;;;;21.90;101597.00;;;;9605354;30;20693;-73
2021/03/24 13:30:38;;;;;;;19.25;12.13;;;;;22.10;101594.00;;;;9612519;30;20215;-73
2021/03/24 13:36:14;;;;;;;14.82;10.45;;;;;22.20;101585.00;;;;9627459;30;20613;-73
2021/03/24 13:41:17;;;;;;;17.17;10.77;;;;;22.20;101593.00;;;;9616901;30;20209;-74
2021/03/24 13:46:31;;;;;;;14.57;10.40;;;;;21.90;101580.00;;;;9618575;30;20257;-74
2021/03/24 13:51:35;;;;;;;21.75;10.68;;;;;21.50;101583.00;;;;9593688;30;20821;-73
2021/03/24 13:56:43;;;;;;;16.88;11.25;;;;;22.60;101575.00;;;;9589703;30;20225;-73
2021/03/24 14:02:16;;;;;;;16.13;11.30;;;;;22.80;101581.00;;;;9605606;30;20678;-73
2021/03/24 14:07:29;;;;;;;19.02;12.13;;;;;23.50;101572.00;;;;9613871;30;20234;-74
2021/03/24 14:12:51;;;;;;;20.65;14.48;;;;;25.50;101569.00;;;;9617904;30;20317;-73
2021/03/24 14:18:09;;;;;;;16.63;12.10;;;;;26.00;101567.00;;;;9625625;30;20228;-73
2021/03/24 14:23:37;;;;;;;29.50;15.98;;;;;26.70;101564.00;;;;9609217;30;20555;-74
2021/03/24 14:28:52;;;;;;;22.25;13.98;;;;;25.50;101553.00;;;;9631035;30;20713;-74
2021/03/24 14:34:49;;;;;;;21.98;14.13;;;;;24.20;101545.00;;;;9615684;30;20228;-74
2021/03/24 14:40:08;;;;;;;20.50;13.88;;;;;25.70;101530.00;;;;9519177;30;20216;-76
2021/03/24 14:45:19;;;;;;;19.80;12.55;;;;;26.80;101522.00;;;;9623005;30;20625;-73
2021/03/24 14:50:26;;;;;;;21.02;13.52;;;;;26.80;101529.00;;;;9622738;30;20221;-75
2021/03/24 14:55:35;;;;;;;18.65;13.30;;;;;26.00;101510.00;;;;9618758;30;20252;-75
2021/03/24 15:00:38;;;;;;;16.90;12.23;;;;;25.40;101517.00;;;;9612050;30;20237;-75
2021/03/24 15:05:42;;;;;;;19.02;14.00;;;;;26.10;101508.00;;;;9649559;30;20307;-75
2021/03/24 15:11:13;;;;;;;21.88;14.45;;;;;27.10;101506.00;;;;9521479;30;20218;-75
2021/03/24 15:17:25;;;;;;;25.13;14.45;;;;;26.50;101509.00;;;;9454780;30;20220;-76
2021/03/24 15:22:57;;;;;;;20.77;14.88;;;;;24.50;101509.00;;;;9599676;30;20205;-75
2021/03/24 15:28:31;;;;;;;21.98;14.48;;;;;25.70;101508.00;;;;9618549;30;20247;-75
2021/03/24 15:33:57;;;;;;;22.85;15.48;;;;;25.30;101494.00;;;;9638778;30;20205;-75
2021/03/24 15:39:44;;;;;;;23.20;13.43;;;;;24.10;101514.00;;;;9623488;30;20217;-75
2021/03/24 15:45:11;;;;;;;25.45;15.35;;;;;22.90;101527.00;;;;9597107;30;21022;-75
2021/03/24 15:50:15;;;;;;;23.80;15.15;;;;;22.20;101526.00;;;;9625003;30;20328;-76
2021/03/24 15:55:23;;;;;;;19.08;14.05;;;;;21.00;101516.00;;;;9582140;30;20210;-76
2021/03/24 16:01:02;;;;;;;22.00;14.95;;;;;20.40;101521.00;;;;9598612;30;20658;-76
2021/03/24 16:06:30;;;;;;;25.38;17.00;;;;;19.60;101519.00;;;;9630309;30;20209;-76
2021/03/24 16:11:51;;;;;;;23.75;16.10;;;;;18.70;101525.00;;;;9614588;30;20205;-76
2021/03/24 16:17:01;;;;;;;29.52;18.10;;;;;18.20;101530.00;;;;9619549;30;20209;-77
2021/03/24 16:22:33;;;;;;;27.45;18.25;;;;;17.70;101536.00;;;;9616639;30;20292;-77
2021/03/24 16:27:57;;;;;;;28.35;18.23;;;;;17.60;101532.00;;;;9618101;30;20209;-77
2021/03/24 16:33:27;;;;;;;31.05;17.70;;;;;17.60;101521.00;;;;9618468;30;20376;-77
2021/03/24 16:38:39;;;;;;;28.40;18.87;;;;;17.40;101518.00;;;;9618118;30;20227;-77
2021/03/24 16:44:16;;;;;;;24.25;17.67;;;;;17.20;101520.00;;;;9617594;30;20221;-77
2021/03/24 16:49:50;;;;;;;24.73;17.50;;;;;17.10;101516.00;;;;9616489;30;20233;-77
2021/03/24 16:55:06;;;;;;;26.53;17.37;;;;;16.90;101511.00;;;;9617009;30;20209;-76
2021/03/24 17:00:23;;;;;;;25.50;17.30;;;;;16.50;101522.00;;;;9606614;30;20328;-76
2021/03/24 17:05:47;;;;;;;23.38;16.92;;;;;16.30;101515.00;;;;9618291;30;20213;-76
2021/03/24 17:11:13;;;;;;;26.27;14.77;;;;;16.00;101523.00;;;;9606843;30;20221;-76
2021/03/24 17:16:37;;;;;;;23.57;15.60;;;;;15.80;101508.00;;;;9613210;30;20208;-76
2021/03/24 17:21:56;;;;;;;25.07;16.57;;;;;15.60;101509.00;;;;9616796;30;20232;-76
2021/03/24 17:27:12;;;;;;;25.67;15.90;;;;;15.50;101510.00;;;;9615195;30;20696;-76
2021/03/24 17:32:30;;;;;;;31.37;16.33;;;;;15.20;101518.00;;;;9616581;30;20566;-76
2021/03/24 17:37:56;;;;;;;27.53;16.70;;;;;14.90;101507.00;;;;9625457;30;20212;-76
2021/03/24 17:43:16;;;;;;;25.80;16.03;;;;;14.70;101512.00;;;;9592687;30;20863;-76
2021/03/24 17:48:44;;;;;;;28.47;17.77;;;;;14.40;101512.00;;;;9615400;30;20256;-76
2021/03/24 17:54:08;;;;;;;28.17;17.10;;;;;14.20;101513.00;;;;9616271;30;20296;-76
2021/03/24 17:59:38;;;;;;;28.97;16.87;;;;;13.90;101525.00;;;;9612007;30;20317;-75
2021/03/24 18:04:53;;;;;;;23.37;15.83;;;;;13.60;101515.00;;;;9609500;30;20261;-76
2021/03/24 18:09:54;;;;;;;25.57;17.00;;;;;13.30;101520.00;;;;9611511;30;21113;-75
2021/03/24 18:15:14;;;;;;;28.47;16.47;;;;;13.00;101528.00;;;;9608991;30;20216;-75
2021/03/24 18:20:22;;;;;;;29.20;17.10;;;;;12.90;101522.00;;;;9611173;30;20260;-75
2021/03/24 18:25:33;;;;;;;32.73;17.57;;;;;12.90;101524.00;;;;9592074;30;20318;-75
2021/03/24 18:30:56;;;;;;;24.40;16.10;;;;;12.90;101526.00;;;;9605570;30;20276;-75
2021/03/24 18:36:02;;;;;;;26.77;18.20;;;;;12.70;101530.00;;;;9625745;30;20221;-76
2021/03/24 18:41:05;;;;;;;32.00;18.47;;;;;12.50;101529.00;;;;9596713;30;20228;-76
2021/03/24 18:46:07;;;;;;;32.03;18.33;;;;;12.20;101529.00;;;;9624805;30;20225;-75
2021/03/24 18:51:27;;;;;;;28.57;18.50;;;;;12.00;101521.00;;;;9596947;30;20201;-75
2021/03/24 18:56:44;;;;;;;32.73;18.73;;;;;11.80;101522.00;;;;9614104;30;20566;-76
2021/03/24 19:01:46;;;;;;;30.67;19.77;;;;;11.50;101534.00;;;;9592506;30;20215;-77
2021/03/24 19:06:54;;;;;;;40.53;21.43;;;;;11.40;101555.00;;;;9621655;30;20254;-75
2021/03/24 19:11:57;;;;;;;44.30;26.00;;;;;11.30;101557.00;;;;9620404;30;20305;-76
2021/03/24 19:16:58;;;;;;;39.87;23.30;;;;;11.00;101567.00;;;;9625385;30;20213;-75
2021/03/24 19:22:01;;;;;;;38.67;23.63;;;;;10.80;101578.00;;;;9597362;30;20646;-75
2021/03/24 19:27:23;;;;;;;41.53;23.10;;;;;10.60;101580.00;;;;9608967;30;20217;-76
2021/03/24 19:32:29;;;;;;;41.37;24.60;;;;;10.50;101586.00;;;;9615068;30;20217;-75
2021/03/24 19:37:32;;;;;;;39.37;25.00;;;;;10.30;101589.00;;;;9616729;30;20280;-75
2021/03/24 19:42:55;;;;;;;44.40;25.43;;;;;10.10;101592.00;;;;9619508;30;20209;-75
2021/03/24 19:48:14;;;;;;;46.57;25.77;;;;;10.00;101606.00;;;;9605912;30;20229;-75
2021/03/24 19:53:19;;;;;;;43.60;26.83;;;;;9.90;101612.00;;;;9622041;30;20255;-75
2021/03/24 19:58:30;;;;;;;44.93;25.87;;;;;9.70;101609.00;;;;9601963;30;20690;-75
2021/03/24 20:03:59;;;;;;;50.43;27.43;;;;;9.60;101614.00;;;;9631668;30;20265;-75
2021/03/24 20:09:16;;;;;;;47.07;26.97;;;;;9.50;101620.00;;;;9620509;30;20263;-75
2021/03/24 20:14:30;;;;;;;47.40;26.80;;;;;9.40;101629.00;;;;9603159;30;20212;-75
2021/03/24 20:19:33;;;;;;;53.30;27.63;;;;;9.30;101630.00;;;;9602492;30;20240;-75
2021/03/24 20:24:34;;;;;;;48.73;27.43;;;;;9.20;101630.00;;;;9636096;30;20221;-75
2021/03/24 20:29:37;;;;;;;46.47;28.27;;;;;9.10;101643.00;;;;9630637;30;20243;-75
2021/03/24 20:34:59;;;;;;;45.13;26.83;;;;;9.00;101631.00;;;;9615297;30;20236;-75
2021/03/24 20:40:26;;;;;;;47.03;28.13;;;;;8.80;101630.00;;;;9589220;30;20236;-75
2021/03/24 20:45:27;;;;;;;46.73;26.47;;;;;8.80;101633.00;;;;9615781;30;20252;-75
2021/03/24 20:50:34;;;;;;;43.93;25.57;;;;;8.70;101615.00;;;;9592968;30;20209;-75
2021/03/24 20:55:36;;;;;;;45.83;26.37;;;;;8.60;101616.00;;;;9629157;30;20209;-75
2021/03/24 21:00:41;;;;;;;50.30;26.93;;;;;8.40;101604.00;;;;9600731;30;20275;-75
2021/03/24 21:05:42;;;;;;;53.07;27.57;;;;;8.20;101614.00;;;;9628159;30;20311;-75
2021/03/24 21:10:44;;;;;;;47.07;26.27;;;;;8.10;101614.00;;;;9621607;30;20227;-75
2021/03/24 21:15:51;;;;;;;49.43;26.73;;;;;8.00;101613.00;;;;9608080;30;20206;-75
2021/03/24 21:20:55;;;;;;;47.03;26.23;;;;;7.90;101616.00;;;;9635214;30;20212;-75
2021/03/24 21:25:57;;;;;;;47.73;27.37;;;;;7.90;101617.00;;;;9622536;30;20224;-75
2021/03/24 21:30:59;;;;;;;48.57;28.07;;;;;7.80;101612.00;;;;9621937;30;20213;-75
2021/03/24 21:36:02;;;;;;;46.87;24.10;;;;;7.70;101606.00;;;;9629449;30;20196;-74
2021/03/24 21:41:28;;;;;;;48.10;25.97;;;;;7.70;101618.00;;;;9608417;30;20211;-74
2021/03/24 21:46:50;;;;;;;46.53;26.43;;;;;7.70;101606.00;;;;9567268;30;20312;-75
2021/03/24 21:51:55;;;;;;;45.87;24.97;;;;;7.60;101605.00;;;;9618354;30;20222;-75
2021/03/24 21:57:28;;;;;;;46.57;25.77;;;;;7.50;101605.00;;;;9620686;30;20268;-75
2021/03/24 22:02:46;;;;;;;44.37;23.30;;;;;7.40;101612.00;;;;9596126;30;20279;-75
2021/03/24 22:07:48;;;;;;;45.60;24.83;;;;;7.30;101614.00;;;;9627632;30;20220;-75
2021/03/24 22:13:02;;;;;;;48.53;24.53;;;;;7.30;101605.00;;;;9620433;30;20260;-75
2021/03/24 22:18:09;;;;;;;47.30;25.90;;;;;7.20;101607.00;;;;9640812;30;20208;-75
2021/03/24 22:23:14;;;;;;;47.30;25.57;;;;;7.20;101603.00;;;;9603616;30;20565;-75
2021/03/24 22:28:35;;;;;;;47.20;26.63;;;;;7.10;101597.00;;;;9602813;30;20290;-75
2021/03/24 22:33:59;;;;;;;42.53;24.00;;;;;7.10;101597.00;;;;9588679;30;20263;-75
2021/03/24 22:39:27;;;;;;;42.07;23.60;;;;;7.10;101601.00;;;;9633169;30;20264;-75
2021/03/24 22:44:32;;;;;;;42.33;24.90;;;;;7.10;101597.00;;;;9614306;30;20276;-75
2021/03/24 22:49:48;;;;;;;41.10;24.50;;;;;7.00;101600.00;;;;9623627;30;20212;-75
2021/03/24 22:55:03;;;;;;;45.43;24.57;;;;;7.00;101599.00;;;;9614600;30;20213;-75
2021/03/24 23:00:09;;;;;;;42.93;24.30;;;;;6.90;101612.00;;;;9566786;30;20289;-75
2021/03/24 23:05:12;;;;;;;49.37;25.47;;;;;6.90;101607.00;;;;9595524;30;20599;-75
2021/03/24 23:10:32;;;;;;;43.73;24.93;;;;;6.90;101602.00;;;;9570374;30;20206;-75
2021/03/24 23:15:47;;;;;;;48.57;25.43;;;;;6.90;101594.00;;;;9626746;30;20785;-75
2021/03/24 23:21:03;;;;;;;45.53;24.83;;;;;6.90;101606.00;;;;9635915;30;20232;-76
2021/03/24 23:26:05;;;;;;;48.97;24.30;;;;;6.90;101602.00;;;;9637825;30;20290;-75
2021/03/24 23:31:08;;;;;;;45.40;23.27;;;;;6.90;101591.00;;;;9657293;30;20208;-75
2021/03/24 23:36:17;;;;;;;48.10;26.27;;;;;6.90;101590.00;;;;9605756;30;20721;-75
2021/03/24 23:41:18;;;;;;;51.60;27.20;;;;;6.90;101592.00;;;;9609347;30;20221;-76
2021/03/24 23:46:23;;;;;;;49.00;28.33;;;;;7.00;101595.00;;;;9608657;30;20259;-76
2021/03/24 23:51:25;;;;;;;52.50;26.27;;;;;7.10;101592.00;;;;9608461;30;20205;-76
2021/03/24 23:56:34;;;;;;;55.50;27.80;;;;;7.10;101584.00;;;;9608053;30;20201;-76
